sensor_id;sensor_type;location;lat;lon;timestamp;P1;durP1;ratioP1;P2;durP2;ratioP2
3006;SDS011;1513;47.650;10.720;2023-04-03T00:00:16;26.40;;;11.80;;
3006;SDS011;1513;47.650;10.720;2023-04-03T00:02:43;29.70;;;13.37;;
3006;SDS011;1513;47.650;10.720;2023-04-03T00:05:10;30.80;;;13.43;;
3006;SDS011;1513;47.650;10.720;2023-04-03T00:07:36;28.10;;;11.70;;
3006;SDS011;1513;47.650;10.720;2023-04-03T00:10:02;24.40;;;11.77;;
3006;SDS011;1513;47.650;10.720;2023-04-03T00:12:29;27.40;;;12.83;;
3006;SDS011;1513;47.650;10.720;2023-04-03T00:14:55;35.10;;;12.27;;
3006;SDS011;1513;47.650;10.720;2023-04-03T00:17:21;26.90;;;11.83;;
3006;SDS011;1513;47.650;10.720;2023-04-03T00:19:47;30.40;;;12.57;;
3006;SDS011;1513;47.650;10.720;2023-04-03T00:22:14;33.30;;;12.10;;
3006;SDS011;1513;47.650;10.720;2023-04-03T00:24:40;31.90;;;13.20;;
3006;SDS011;1513;47.650;10.720;2023-04-03T00:27:07;26.07;;;11.43;;
3006;SDS011;1513;47.650;10.720;2023-04-03T00:29:33;25.20;;;11.20;;
3006;SDS011;1513;47.650;10.720;2023-04-03T00:31:59;26.67;;;12.30;;
3006;SDS011;1513;47.650;10.720;2023-04-03T00:34:26;28.97;;;11.93;;
3006;SDS011;1513;47.650;10.720;2023-04-03T00:36:52;25.90;;;12.37;;
3006;SDS011;1513;47.650;10.720;2023-04-03T00:39:18;21.80;;;10.50;;
3006;SDS011;1513;47.650;10.720;2023-04-03T00:41:44;22.23;;;10.93;;
3006;SDS011;1513;47.650;10.720;2023-04-03T00:46:59;26.77;;;11.50;;
3006;SDS011;1513;47.650;10.720;2023-04-03T00:49:27;23.47;;;11.30;;
3006;SDS011;1513;47.650;10.720;2023-04-03T00:51:53;24.30;;;10.90;;
3006;SDS011;1513;47.650;10.720;2023-04-03T00:54:20;24.90;;;10.57;;
3006;SDS011;1513;47.650;10.720;2023-04-03T00:56:48;27.93;;;10.60;;
3006;SDS011;1513;47.650;10.720;2023-04-03T00:59:20;23.07;;;10.50;;
3006;SDS011;1513;47.650;10.720;2023-04-03T01:01:52;24.00;;;11.27;;
3006;SDS011;1513;47.650;10.720;2023-04-03T01:06:53;27.07;;;11.13;;
3006;SDS011;1513;47.650;10.720;2023-04-03T01:09:21;25.37;;;11.00;;
3006;SDS011;1513;47.650;10.720;2023-04-03T01:11:47;25.80;;;11.37;;
3006;SDS011;1513;47.650;10.720;2023-04-03T01:14:14;24.40;;;9.93;;
3006;SDS011;1513;47.650;10.720;2023-04-03T01:16:40;32.57;;;11.20;;
3006;SDS011;1513;47.650;10.720;2023-04-03T01:19:07;26.33;;;12.33;;
3006;SDS011;1513;47.650;10.720;2023-04-03T01:26:53;28.57;;;10.80;;
3006;SDS011;1513;47.650;10.720;2023-04-03T01:29:20;26.27;;;11.83;;
3006;SDS011;1513;47.650;10.720;2023-04-03T01:34:19;22.43;;;10.90;;
3006;SDS011;1513;47.650;10.720;2023-04-03T01:36:46;24.97;;;10.23;;
3006;SDS011;1513;47.650;10.720;2023-04-03T01:39:12;24.20;;;10.50;;
3006;SDS011;1513;47.650;10.720;2023-04-03T01:41:39;23.83;;;10.90;;
3006;SDS011;1513;47.650;10.720;2023-04-03T01:44:12;21.67;;;10.60;;
3006;SDS011;1513;47.650;10.720;2023-04-03T01:46:38;21.87;;;10.13;;
3006;SDS011;1513;47.650;10.720;2023-04-03T01:49:06;20.77;;;9.80;;
3006;SDS011;1513;47.650;10.720;2023-04-03T01:51:32;25.63;;;12.27;;
3006;SDS011;1513;47.650;10.720;2023-04-03T01:53:59;24.67;;;10.60;;
3006;SDS011;1513;47.650;10.720;2023-04-03T01:56:25;25.50;;;12.37;;
3006;SDS011;1513;47.650;10.720;2023-04-03T01:58:52;25.83;;;10.90;;
3006;SDS011;1513;47.650;10.720;2023-04-03T02:01:18;24.20;;;10.77;;
3006;SDS011;1513;47.650;10.720;2023-04-03T02:03:45;23.93;;;9.77;;
3006;SDS011;1513;47.650;10.720;2023-04-03T02:06:11;27.63;;;11.70;;
3006;SDS011;1513;47.650;10.720;2023-04-03T02:08:37;24.07;;;10.63;;
3006;SDS011;1513;47.650;10.720;2023-04-03T02:11:05;23.97;;;10.37;;
3006;SDS011;1513;47.650;10.720;2023-04-03T02:13:32;22.87;;;10.60;;
3006;SDS011;1513;47.650;10.720;2023-04-03T02:15:59;23.67;;;11.30;;
3006;SDS011;1513;47.650;10.720;2023-04-03T02:18:30;24.50;;;10.33;;
3006;SDS011;1513;47.650;10.720;2023-04-03T02:20:56;24.20;;;10.40;;
3006;SDS011;1513;47.650;10.720;2023-04-03T02:23:23;21.80;;;9.80;;
3006;SDS011;1513;47.650;10.720;2023-04-03T02:25:49;20.63;;;8.70;;
3006;SDS011;1513;47.650;10.720;2023-04-03T02:28:16;20.37;;;9.60;;
3006;SDS011;1513;47.650;10.720;2023-04-03T02:30:42;17.87;;;9.00;;
3006;SDS011;1513;47.650;10.720;2023-04-03T02:33:09;22.70;;;10.77;;
3006;SDS011;1513;47.650;10.720;2023-04-03T02:35:38;27.77;;;11.83;;
3006;SDS011;1513;47.650;10.720;2023-04-03T02:38:05;19.37;;;9.20;;
3006;SDS011;1513;47.650;10.720;2023-04-03T02:40:32;19.63;;;9.40;;
3006;SDS011;1513;47.650;10.720;2023-04-03T02:42:58;21.70;;;10.57;;
3006;SDS011;1513;47.650;10.720;2023-04-03T02:45:25;22.80;;;10.40;;
3006;SDS011;1513;47.650;10.720;2023-04-03T02:47:51;23.33;;;9.70;;
3006;SDS011;1513;47.650;10.720;2023-04-03T02:50:17;20.43;;;8.23;;
3006;SDS011;1513;47.650;10.720;2023-04-03T02:52:44;20.80;;;9.30;;
3006;SDS011;1513;47.650;10.720;2023-04-03T02:55:12;20.60;;;9.67;;
3006;SDS011;1513;47.650;10.720;2023-04-03T02:57:41;19.87;;;9.10;;
3006;SDS011;1513;47.650;10.720;2023-04-03T03:00:08;17.47;;;8.70;;
3006;SDS011;1513;47.650;10.720;2023-04-03T03:02:35;22.53;;;9.57;;
3006;SDS011;1513;47.650;10.720;2023-04-03T03:05:01;21.43;;;9.90;;
3006;SDS011;1513;47.650;10.720;2023-04-03T03:07:28;24.40;;;10.27;;
3006;SDS011;1513;47.650;10.720;2023-04-03T03:09:54;22.57;;;10.20;;
3006;SDS011;1513;47.650;10.720;2023-04-03T03:12:20;27.20;;;10.50;;
3006;SDS011;1513;47.650;10.720;2023-04-03T03:14:48;29.50;;;12.37;;
3006;SDS011;1513;47.650;10.720;2023-04-03T03:17:15;25.70;;;11.43;;
3006;SDS011;1513;47.650;10.720;2023-04-03T03:19:42;27.87;;;11.17;;
3006;SDS011;1513;47.650;10.720;2023-04-03T03:22:09;26.90;;;10.70;;
3006;SDS011;1513;47.650;10.720;2023-04-03T03:24:36;21.13;;;10.33;;
3006;SDS011;1513;47.650;10.720;2023-04-03T03:27:02;25.60;;;10.77;;
3006;SDS011;1513;47.650;10.720;2023-04-03T03:29:29;31.23;;;12.03;;
3006;SDS011;1513;47.650;10.720;2023-04-03T03:31:55;26.43;;;11.70;;
3006;SDS011;1513;47.650;10.720;2023-04-03T03:34:21;30.43;;;11.37;;
3006;SDS011;1513;47.650;10.720;2023-04-03T03:36:47;22.93;;;10.33;;
3006;SDS011;1513;47.650;10.720;2023-04-03T03:39:14;28.00;;;11.20;;
3006;SDS011;1513;47.650;10.720;2023-04-03T03:41:41;27.10;;;11.73;;
3006;SDS011;1513;47.650;10.720;2023-04-03T03:44:07;32.20;;;11.80;;
3006;SDS011;1513;47.650;10.720;2023-04-03T03:46:34;28.63;;;11.40;;
3006;SDS011;1513;47.650;10.720;2023-04-03T03:49:00;22.63;;;10.57;;
3006;SDS011;1513;47.650;10.720;2023-04-03T03:51:26;28.87;;;11.97;;
3006;SDS011;1513;47.650;10.720;2023-04-03T03:53:53;26.37;;;11.57;;
3006;SDS011;1513;47.650;10.720;2023-04-03T03:56:19;23.90;;;10.83;;
3006;SDS011;1513;47.650;10.720;2023-04-03T03:58:46;30.47;;;11.73;;
3006;SDS011;1513;47.650;10.720;2023-04-03T04:01:12;26.63;;;11.47;;
3006;SDS011;1513;47.650;10.720;2023-04-03T04:03:43;27.33;;;10.83;;
3006;SDS011;1513;47.650;10.720;2023-04-03T04:06:13;24.50;;;10.50;;
3006;SDS011;1513;47.650;10.720;2023-04-03T04:08:40;26.93;;;9.57;;
3006;SDS011;1513;47.650;10.720;2023-04-03T04:11:09;25.53;;;11.27;;
3006;SDS011;1513;47.650;10.720;2023-04-03T04:13:36;23.97;;;10.47;;
3006;SDS011;1513;47.650;10.720;2023-04-03T04:16:03;26.50;;;11.10;;
3006;SDS011;1513;47.650;10.720;2023-04-03T04:18:31;24.00;;;10.30;;
3006;SDS011;1513;47.650;10.720;2023-04-03T04:20:58;22.40;;;9.83;;
3006;SDS011;1513;47.650;10.720;2023-04-03T04:23:24;21.30;;;9.67;;
3006;SDS011;1513;47.650;10.720;2023-04-03T04:25:51;22.23;;;9.50;;
3006;SDS011;1513;47.650;10.720;2023-04-03T04:28:18;20.47;;;9.60;;
3006;SDS011;1513;47.650;10.720;2023-04-03T04:30:47;21.13;;;8.60;;
3006;SDS011;1513;47.650;10.720;2023-04-03T04:33:15;20.00;;;9.20;;
3006;SDS011;1513;47.650;10.720;2023-04-03T04:35:43;23.33;;;9.63;;
3006;SDS011;1513;47.650;10.720;2023-04-03T04:38:12;21.47;;;9.00;;
3006;SDS011;1513;47.650;10.720;2023-04-03T04:40:38;20.80;;;9.57;;
3006;SDS011;1513;47.650;10.720;2023-04-03T04:43:06;20.17;;;8.73;;
3006;SDS011;1513;47.650;10.720;2023-04-03T04:45:32;20.37;;;8.90;;
3006;SDS011;1513;47.650;10.720;2023-04-03T04:47:59;18.83;;;7.97;;
3006;SDS011;1513;47.650;10.720;2023-04-03T04:50:26;17.10;;;8.10;;
3006;SDS011;1513;47.650;10.720;2023-04-03T04:52:53;19.30;;;8.50;;
3006;SDS011;1513;47.650;10.720;2023-04-03T04:55:19;17.90;;;7.80;;
3006;SDS011;1513;47.650;10.720;2023-04-03T04:57:46;15.53;;;7.00;;
3006;SDS011;1513;47.650;10.720;2023-04-03T05:00:12;17.07;;;7.77;;
3006;SDS011;1513;47.650;10.720;2023-04-03T05:02:39;17.40;;;6.87;;
3006;SDS011;1513;47.650;10.720;2023-04-03T05:05:06;17.87;;;7.67;;
3006;SDS011;1513;47.650;10.720;2023-04-03T05:07:33;17.37;;;6.63;;
3006;SDS011;1513;47.650;10.720;2023-04-03T05:10:01;16.17;;;8.23;;
3006;SDS011;1513;47.650;10.720;2023-04-03T05:12:28;15.07;;;7.20;;
3006;SDS011;1513;47.650;10.720;2023-04-03T05:14:58;17.40;;;7.63;;
3006;SDS011;1513;47.650;10.720;2023-04-03T05:17:26;19.37;;;8.27;;
3006;SDS011;1513;47.650;10.720;2023-04-03T05:19:55;16.90;;;7.27;;
3006;SDS011;1513;47.650;10.720;2023-04-03T05:22:22;16.60;;;7.87;;
3006;SDS011;1513;47.650;10.720;2023-04-03T05:24:51;15.80;;;7.70;;
3006;SDS011;1513;47.650;10.720;2023-04-03T05:27:18;20.80;;;8.10;;
3006;SDS011;1513;47.650;10.720;2023-04-03T05:29:50;19.63;;;8.97;;
3006;SDS011;1513;47.650;10.720;2023-04-03T05:32:21;18.03;;;8.53;;
3006;SDS011;1513;47.650;10.720;2023-04-03T05:34:52;19.23;;;8.57;;
3006;SDS011;1513;47.650;10.720;2023-04-03T05:37:19;18.07;;;8.70;;
3006;SDS011;1513;47.650;10.720;2023-04-03T05:39:45;17.83;;;8.53;;
3006;SDS011;1513;47.650;10.720;2023-04-03T05:42:12;19.63;;;7.93;;
3006;SDS011;1513;47.650;10.720;2023-04-03T05:44:39;17.10;;;7.80;;
3006;SDS011;1513;47.650;10.720;2023-04-03T05:47:06;16.20;;;7.53;;
3006;SDS011;1513;47.650;10.720;2023-04-03T05:49:32;23.10;;;9.77;;
3006;SDS011;1513;47.650;10.720;2023-04-03T05:51:58;19.30;;;7.60;;
3006;SDS011;1513;47.650;10.720;2023-04-03T05:54:29;15.17;;;7.43;;
3006;SDS011;1513;47.650;10.720;2023-04-03T05:57:18;15.93;;;7.30;;
3006;SDS011;1513;47.650;10.720;2023-04-03T05:59:45;16.43;;;7.43;;
3006;SDS011;1513;47.650;10.720;2023-04-03T06:02:13;19.30;;;7.80;;
3006;SDS011;1513;47.650;10.720;2023-04-03T06:04:42;14.83;;;7.40;;
3006;SDS011;1513;47.650;10.720;2023-04-03T06:07:12;15.70;;;7.73;;
3006;SDS011;1513;47.650;10.720;2023-04-03T06:09:41;15.97;;;7.57;;
3006;SDS011;1513;47.650;10.720;2023-04-03T06:12:07;14.73;;;7.87;;
3006;SDS011;1513;47.650;10.720;2023-04-03T06:14:34;19.90;;;8.47;;
3006;SDS011;1513;47.650;10.720;2023-04-03T06:17:01;49.03;;;18.50;;
3006;SDS011;1513;47.650;10.720;2023-04-03T06:19:27;46.80;;;17.60;;
3006;SDS011;1513;47.650;10.720;2023-04-03T06:21:56;23.87;;;8.87;;
3006;SDS011;1513;47.650;10.720;2023-04-03T06:24:23;24.33;;;11.17;;
3006;SDS011;1513;47.650;10.720;2023-04-03T06:26:50;37.00;;;15.57;;
3006;SDS011;1513;47.650;10.720;2023-04-03T06:29:18;22.80;;;9.97;;
3006;SDS011;1513;47.650;10.720;2023-04-03T06:31:44;23.07;;;10.43;;
3006;SDS011;1513;47.650;10.720;2023-04-03T06:34:11;36.23;;;12.77;;
3006;SDS011;1513;47.650;10.720;2023-04-03T06:36:38;24.03;;;9.90;;
3006;SDS011;1513;47.650;10.720;2023-04-03T06:39:04;63.40;;;19.70;;
3006;SDS011;1513;47.650;10.720;2023-04-03T06:41:32;76.80;;;21.10;;
3006;SDS011;1513;47.650;10.720;2023-04-03T06:43:58;21.23;;;10.00;;
3006;SDS011;1513;47.650;10.720;2023-04-03T06:46:25;30.40;;;12.53;;
3006;SDS011;1513;47.650;10.720;2023-04-03T06:48:52;37.40;;;14.30;;
3006;SDS011;1513;47.650;10.720;2023-04-03T06:51:20;26.43;;;11.43;;
3006;SDS011;1513;47.650;10.720;2023-04-03T06:53:47;24.30;;;10.70;;
3006;SDS011;1513;47.650;10.720;2023-04-03T06:56:14;62.30;;;21.60;;
3006;SDS011;1513;47.650;10.720;2023-04-03T06:58:41;36.43;;;14.10;;
3006;SDS011;1513;47.650;10.720;2023-04-03T07:01:12;38.60;;;14.07;;
3006;SDS011;1513;47.650;10.720;2023-04-03T07:03:40;49.50;;;17.40;;
3006;SDS011;1513;47.650;10.720;2023-04-03T07:06:08;29.10;;;12.17;;
3006;SDS011;1513;47.650;10.720;2023-04-03T07:08:38;29.53;;;12.23;;
3006;SDS011;1513;47.650;10.720;2023-04-03T07:11:05;30.40;;;11.97;;
3006;SDS011;1513;47.650;10.720;2023-04-03T07:13:32;31.57;;;12.67;;
3006;SDS011;1513;47.650;10.720;2023-04-03T07:15:58;34.40;;;13.80;;
3006;SDS011;1513;47.650;10.720;2023-04-03T07:18:25;34.40;;;13.70;;
3006;SDS011;1513;47.650;10.720;2023-04-03T07:20:52;26.50;;;11.67;;
3006;SDS011;1513;47.650;10.720;2023-04-03T07:23:18;31.47;;;14.37;;
3006;SDS011;1513;47.650;10.720;2023-04-03T07:25:45;30.27;;;12.13;;
3006;SDS011;1513;47.650;10.720;2023-04-03T07:28:12;29.90;;;12.77;;
3006;SDS011;1513;47.650;10.720;2023-04-03T07:30:45;28.57;;;11.60;;
3006;SDS011;1513;47.650;10.720;2023-04-03T07:33:13;26.00;;;11.00;;
3006;SDS011;1513;47.650;10.720;2023-04-03T07:35:41;30.20;;;14.10;;
3006;SDS011;1513;47.650;10.720;2023-04-03T07:38:08;25.63;;;12.17;;
3006;SDS011;1513;47.650;10.720;2023-04-03T07:40:35;32.47;;;13.53;;
3006;SDS011;1513;47.650;10.720;2023-04-03T07:43:01;25.97;;;11.83;;
3006;SDS011;1513;47.650;10.720;2023-04-03T07:45:28;25.30;;;10.73;;
3006;SDS011;1513;47.650;10.720;2023-04-03T07:47:55;24.33;;;11.80;;
3006;SDS011;1513;47.650;10.720;2023-04-03T07:50:21;24.80;;;11.47;;
3006;SDS011;1513;47.650;10.720;2023-04-03T07:52:48;30.37;;;12.43;;
3006;SDS011;1513;47.650;10.720;2023-04-03T07:55:16;25.67;;;11.50;;
3006;SDS011;1513;47.650;10.720;2023-04-03T07:57:42;30.37;;;12.43;;
3006;SDS011;1513;47.650;10.720;2023-04-03T08:00:09;27.13;;;11.90;;
3006;SDS011;1513;47.650;10.720;2023-04-03T08:02:40;22.10;;;10.77;;
3006;SDS011;1513;47.650;10.720;2023-04-03T08:05:06;22.70;;;10.00;;
3006;SDS011;1513;47.650;10.720;2023-04-03T08:07:33;28.40;;;11.40;;
3006;SDS011;1513;47.650;10.720;2023-04-03T08:09:59;25.97;;;10.57;;
3006;SDS011;1513;47.650;10.720;2023-04-03T08:12:25;25.13;;;10.77;;
3006;SDS011;1513;47.650;10.720;2023-04-03T08:14:53;26.40;;;11.63;;
3006;SDS011;1513;47.650;10.720;2023-04-03T08:17:20;26.10;;;10.97;;
3006;SDS011;1513;47.650;10.720;2023-04-03T08:19:46;24.10;;;9.70;;
3006;SDS011;1513;47.650;10.720;2023-04-03T08:22:12;21.53;;;9.60;;
3006;SDS011;1513;47.650;10.720;2023-04-03T08:24:39;19.87;;;9.03;;
3006;SDS011;1513;47.650;10.720;2023-04-03T08:27:05;23.90;;;10.60;;
3006;SDS011;1513;47.650;10.720;2023-04-03T08:29:31;22.10;;;9.93;;
3006;SDS011;1513;47.650;10.720;2023-04-03T08:31:57;21.10;;;9.73;;
3006;SDS011;1513;47.650;10.720;2023-04-03T08:34:24;18.90;;;8.90;;
3006;SDS011;1513;47.650;10.720;2023-04-03T08:36:51;24.07;;;10.30;;
3006;SDS011;1513;47.650;10.720;2023-04-03T08:39:17;23.40;;;9.80;;
3006;SDS011;1513;47.650;10.720;2023-04-03T08:41:44;18.87;;;9.70;;
3006;SDS011;1513;47.650;10.720;2023-04-03T08:44:55;24.07;;;10.20;;
3006;SDS011;1513;47.650;10.720;2023-04-03T08:47:18;22.33;;;9.17;;
3006;SDS011;1513;47.650;10.720;2023-04-03T08:52:35;18.87;;;9.17;;
3006;SDS011;1513;47.650;10.720;2023-04-03T08:55:23;17.07;;;8.37;;
3006;SDS011;1513;47.650;10.720;2023-04-03T08:58:09;17.10;;;8.97;;
3006;SDS011;1513;47.650;10.720;2023-04-03T09:01:02;19.50;;;9.90;;
3006;SDS011;1513;47.650;10.720;2023-04-03T09:03:30;19.87;;;9.47;;
3006;SDS011;1513;47.650;10.720;2023-04-03T09:09:04;16.63;;;7.73;;
3006;SDS011;1513;47.650;10.720;2023-04-03T09:22:55;16.70;;;6.80;;
3006;SDS011;1513;47.650;10.720;2023-04-03T09:25:31;23.90;;;7.97;;
3006;SDS011;1513;47.650;10.720;2023-04-03T09:28:00;16.20;;;8.33;;
3006;SDS011;1513;47.650;10.720;2023-04-03T09:30:29;12.83;;;7.47;;
3006;SDS011;1513;47.650;10.720;2023-04-03T09:32:56;18.30;;;9.13;;
3006;SDS011;1513;47.650;10.720;2023-04-03T09:35:26;14.47;;;7.77;;
3006;SDS011;1513;47.650;10.720;2023-04-03T09:37:58;13.63;;;7.40;;
3006;SDS011;1513;47.650;10.720;2023-04-03T09:42:55;11.27;;;7.47;;
3006;SDS011;1513;47.650;10.720;2023-04-03T09:50:34;11.40;;;5.90;;
3006;SDS011;1513;47.650;10.720;2023-04-03T09:53:23;11.10;;;6.40;;
3006;SDS011;1513;47.650;10.720;2023-04-03T09:56:25;11.77;;;6.80;;
3006;SDS011;1513;47.650;10.720;2023-04-03T10:01:34;10.07;;;6.20;;
3006;SDS011;1513;47.650;10.720;2023-04-03T10:06:29;12.23;;;6.30;;
3006;SDS011;1513;47.650;10.720;2023-04-03T10:09:05;9.40;;;6.37;;
3006;SDS011;1513;47.650;10.720;2023-04-03T10:12:11;9.50;;;6.37;;
3006;SDS011;1513;47.650;10.720;2023-04-03T10:14:40;15.50;;;8.50;;
3006;SDS011;1513;47.650;10.720;2023-04-03T10:19:55;9.50;;;5.73;;
3006;SDS011;1513;47.650;10.720;2023-04-03T10:25:23;8.33;;;5.17;;
3006;SDS011;1513;47.650;10.720;2023-04-03T10:30:34;9.70;;;6.40;;
3006;SDS011;1513;47.650;10.720;2023-04-03T10:38:39;9.70;;;5.27;;
3006;SDS011;1513;47.650;10.720;2023-04-03T10:47:14;9.47;;;5.73;;
3006;SDS011;1513;47.650;10.720;2023-04-03T10:49:48;7.73;;;5.97;;
3006;SDS011;1513;47.650;10.720;2023-04-03T10:52:21;8.00;;;5.27;;
3006;SDS011;1513;47.650;10.720;2023-04-03T10:57:43;7.63;;;4.70;;
3006;SDS011;1513;47.650;10.720;2023-04-03T11:00:53;7.13;;;4.70;;
3006;SDS011;1513;47.650;10.720;2023-04-03T11:03:45;8.20;;;4.70;;
3006;SDS011;1513;47.650;10.720;2023-04-03T11:06:00;6.80;;;4.60;;
3006;SDS011;1513;47.650;10.720;2023-04-03T11:11:17;13.23;;;6.57;;
3006;SDS011;1513;47.650;10.720;2023-04-03T11:14:01;9.17;;;5.90;;
3006;SDS011;1513;47.650;10.720;2023-04-03T11:16:31;5.93;;;4.87;;
3006;SDS011;1513;47.650;10.720;2023-04-03T11:19:14;5.90;;;4.17;;
3006;SDS011;1513;47.650;10.720;2023-04-03T11:21:54;11.57;;;5.53;;
3006;SDS011;1513;47.650;10.720;2023-04-03T11:24:25;6.53;;;4.10;;
3006;SDS011;1513;47.650;10.720;2023-04-03T11:26:54;10.03;;;4.97;;
3006;SDS011;1513;47.650;10.720;2023-04-03T11:29:22;8.00;;;5.30;;
3006;SDS011;1513;47.650;10.720;2023-04-03T11:34:49;8.03;;;5.70;;
3006;SDS011;1513;47.650;10.720;2023-04-03T11:37:33;6.33;;;4.70;;
3006;SDS011;1513;47.650;10.720;2023-04-03T11:40:04;8.60;;;5.40;;
3006;SDS011;1513;47.650;10.720;2023-04-03T11:50:57;7.93;;;5.17;;
3006;SDS011;1513;47.650;10.720;2023-04-03T11:56:01;7.33;;;4.90;;
3006;SDS011;1513;47.650;10.720;2023-04-03T11:58:30;10.23;;;5.57;;
3006;SDS011;1513;47.650;10.720;2023-04-03T12:03:56;14.70;;;7.80;;
3006;SDS011;1513;47.650;10.720;2023-04-03T12:09:00;13.00;;;8.00;;
3006;SDS011;1513;47.650;10.720;2023-04-03T12:11:31;7.53;;;5.57;;
3006;SDS011;1513;47.650;10.720;2023-04-03T12:16:33;9.30;;;5.87;;
3006;SDS011;1513;47.650;10.720;2023-04-03T12:29:42;8.63;;;6.03;;
3006;SDS011;1513;47.650;10.720;2023-04-03T12:35:27;12.20;;;6.30;;
3006;SDS011;1513;47.650;10.720;2023-04-03T12:40:52;9.73;;;5.90;;
3006;SDS011;1513;47.650;10.720;2023-04-03T12:43:50;10.33;;;7.03;;
3006;SDS011;1513;47.650;10.720;2023-04-03T12:46:39;11.07;;;6.63;;
3006;SDS011;1513;47.650;10.720;2023-04-03T12:49:24;9.27;;;6.50;;
3006;SDS011;1513;47.650;10.720;2023-04-03T12:51:58;16.73;;;9.80;;
3006;SDS011;1513;47.650;10.720;2023-04-03T12:54:37;11.33;;;7.33;;
3006;SDS011;1513;47.650;10.720;2023-04-03T12:59:41;12.17;;;7.20;;
3006;SDS011;1513;47.650;10.720;2023-04-03T13:02:24;12.80;;;7.57;;
3006;SDS011;1513;47.650;10.720;2023-04-03T13:04:56;11.03;;;6.70;;
3006;SDS011;1513;47.650;10.720;2023-04-03T13:07:31;9.80;;;6.60;;
3006;SDS011;1513;47.650;10.720;2023-04-03T13:12:33;11.03;;;6.90;;
3006;SDS011;1513;47.650;10.720;2023-04-03T13:15:02;12.03;;;7.60;;
3006;SDS011;1513;47.650;10.720;2023-04-03T13:17:41;11.77;;;6.83;;
3006;SDS011;1513;47.650;10.720;2023-04-03T13:20:12;8.90;;;6.30;;
3006;SDS011;1513;47.650;10.720;2023-04-03T13:22:59;10.90;;;6.60;;
3006;SDS011;1513;47.650;10.720;2023-04-03T13:25:28;15.23;;;7.80;;
3006;SDS011;1513;47.650;10.720;2023-04-03T13:27:57;12.63;;;7.20;;
3006;SDS011;1513;47.650;10.720;2023-04-03T13:30:34;11.87;;;7.33;;
3006;SDS011;1513;47.650;10.720;2023-04-03T13:33:03;18.40;;;8.30;;
3006;SDS011;1513;47.650;10.720;2023-04-03T13:35:39;11.33;;;7.33;;
3006;SDS011;1513;47.650;10.720;2023-04-03T13:40:51;12.30;;;6.80;;
3006;SDS011;1513;47.650;10.720;2023-04-03T13:43:24;22.80;;;7.93;;
3006;SDS011;1513;47.650;10.720;2023-04-03T13:48:37;13.03;;;7.77;;
3006;SDS011;1513;47.650;10.720;2023-04-03T13:53:45;19.33;;;9.50;;
3006;SDS011;1513;47.650;10.720;2023-04-03T13:56:16;19.03;;;8.37;;
3006;SDS011;1513;47.650;10.720;2023-04-03T13:58:57;14.03;;;7.97;;
3006;SDS011;1513;47.650;10.720;2023-04-03T14:01:49;16.37;;;7.73;;
3006;SDS011;1513;47.650;10.720;2023-04-03T14:04:48;15.70;;;9.13;;
3006;SDS011;1513;47.650;10.720;2023-04-03T14:07:18;15.80;;;7.70;;
3006;SDS011;1513;47.650;10.720;2023-04-03T14:09:46;19.03;;;9.43;;
3006;SDS011;1513;47.650;10.720;2023-04-03T14:12:33;16.20;;;9.03;;
3006;SDS011;1513;47.650;10.720;2023-04-03T14:15:01;12.60;;;7.27;;
3006;SDS011;1513;47.650;10.720;2023-04-03T14:17:31;11.93;;;7.80;;
3006;SDS011;1513;47.650;10.720;2023-04-03T14:19:57;20.13;;;9.20;;
3006;SDS011;1513;47.650;10.720;2023-04-03T14:22:30;22.73;;;10.73;;
3006;SDS011;1513;47.650;10.720;2023-04-03T14:24:57;32.83;;;11.43;;
3006;SDS011;1513;47.650;10.720;2023-04-03T14:27:28;13.83;;;8.63;;
3006;SDS011;1513;47.650;10.720;2023-04-03T14:29:59;14.90;;;7.90;;
3006;SDS011;1513;47.650;10.720;2023-04-03T14:32:28;21.50;;;9.90;;
3006;SDS011;1513;47.650;10.720;2023-04-03T14:34:55;12.57;;;7.57;;
3006;SDS011;1513;47.650;10.720;2023-04-03T14:37:23;18.77;;;8.60;;
3006;SDS011;1513;47.650;10.720;2023-04-03T14:39:51;12.97;;;7.20;;
3006;SDS011;1513;47.650;10.720;2023-04-03T14:42:20;20.40;;;10.80;;
3006;SDS011;1513;47.650;10.720;2023-04-03T14:44:48;20.33;;;10.23;;
3006;SDS011;1513;47.650;10.720;2023-04-03T14:47:16;16.83;;;9.57;;
3006;SDS011;1513;47.650;10.720;2023-04-03T14:49:45;17.27;;;9.90;;
3006;SDS011;1513;47.650;10.720;2023-04-03T14:52:23;13.30;;;8.00;;
3006;SDS011;1513;47.650;10.720;2023-04-03T14:54:52;15.50;;;7.87;;
3006;SDS011;1513;47.650;10.720;2023-04-03T14:57:19;10.13;;;7.33;;
3006;SDS011;1513;47.650;10.720;2023-04-03T14:59:47;13.87;;;8.27;;
3006;SDS011;1513;47.650;10.720;2023-04-03T15:02:27;18.53;;;9.70;;
3006;SDS011;1513;47.650;10.720;2023-04-03T15:04:57;14.33;;;6.67;;
3006;SDS011;1513;47.650;10.720;2023-04-03T15:07:26;13.77;;;8.10;;
3006;SDS011;1513;47.650;10.720;2023-04-03T15:09:53;16.13;;;9.10;;
3006;SDS011;1513;47.650;10.720;2023-04-03T15:12:22;18.60;;;8.00;;
3006;SDS011;1513;47.650;10.720;2023-04-03T15:14:49;12.60;;;7.60;;
3006;SDS011;1513;47.650;10.720;2023-04-03T15:17:17;14.83;;;7.63;;
3006;SDS011;1513;47.650;10.720;2023-04-03T15:19:45;13.43;;;7.17;;
3006;SDS011;1513;47.650;10.720;2023-04-03T15:22:15;13.67;;;7.43;;
3006;SDS011;1513;47.650;10.720;2023-04-03T15:24:43;11.67;;;6.93;;
3006;SDS011;1513;47.650;10.720;2023-04-03T15:27:09;20.23;;;9.60;;
3006;SDS011;1513;47.650;10.720;2023-04-03T15:29:37;13.40;;;7.87;;
3006;SDS011;1513;47.650;10.720;2023-04-03T15:32:04;12.03;;;6.97;;
3006;SDS011;1513;47.650;10.720;2023-04-03T15:34:31;10.10;;;6.97;;
3006;SDS011;1513;47.650;10.720;2023-04-03T15:36:57;16.83;;;8.27;;
3006;SDS011;1513;47.650;10.720;2023-04-03T15:39:27;11.53;;;6.70;;
3006;SDS011;1513;47.650;10.720;2023-04-03T15:41:53;16.80;;;7.80;;
3006;SDS011;1513;47.650;10.720;2023-04-03T15:44:20;11.90;;;7.37;;
3006;SDS011;1513;47.650;10.720;2023-04-03T15:46:47;16.07;;;8.80;;
3006;SDS011;1513;47.650;10.720;2023-04-03T15:49:16;20.47;;;12.00;;
3006;SDS011;1513;47.650;10.720;2023-04-03T15:51:43;12.07;;;6.40;;
3006;SDS011;1513;47.650;10.720;2023-04-03T15:54:09;16.70;;;10.10;;
3006;SDS011;1513;47.650;10.720;2023-04-03T15:56:37;15.30;;;7.80;;
3006;SDS011;1513;47.650;10.720;2023-04-03T15:59:03;20.77;;;10.57;;
3006;SDS011;1513;47.650;10.720;2023-04-03T16:01:29;14.57;;;8.10;;
3006;SDS011;1513;47.650;10.720;2023-04-03T16:03:56;10.53;;;6.53;;
3006;SDS011;1513;47.650;10.720;2023-04-03T16:06:23;12.10;;;5.90;;
3006;SDS011;1513;47.650;10.720;2023-04-03T16:08:50;10.13;;;5.20;;
3006;SDS011;1513;47.650;10.720;2023-04-03T16:11:16;10.40;;;5.10;;
3006;SDS011;1513;47.650;10.720;2023-04-03T16:13:43;6.00;;;4.43;;
3006;SDS011;1513;47.650;10.720;2023-04-03T16:16:09;18.57;;;8.53;;
3006;SDS011;1513;47.650;10.720;2023-04-03T16:18:35;12.60;;;6.73;;
3006;SDS011;1513;47.650;10.720;2023-04-03T16:21:02;11.70;;;6.70;;
3006;SDS011;1513;47.650;10.720;2023-04-03T16:23:28;9.53;;;5.50;;
3006;SDS011;1513;47.650;10.720;2023-04-03T16:25:54;9.43;;;5.77;;
3006;SDS011;1513;47.650;10.720;2023-04-03T16:28:21;7.60;;;5.73;;
3006;SDS011;1513;47.650;10.720;2023-04-03T16:30:47;11.23;;;8.20;;
3006;SDS011;1513;47.650;10.720;2023-04-03T16:33:14;10.50;;;7.50;;
3006;SDS011;1513;47.650;10.720;2023-04-03T16:35:40;11.13;;;6.20;;
3006;SDS011;1513;47.650;10.720;2023-04-03T16:38:08;18.93;;;10.03;;
3006;SDS011;1513;47.650;10.720;2023-04-03T16:40:34;18.40;;;10.40;;
3006;SDS011;1513;47.650;10.720;2023-04-03T16:43:01;19.63;;;9.67;;
3006;SDS011;1513;47.650;10.720;2023-04-03T16:45:27;9.43;;;5.80;;
3006;SDS011;1513;47.650;10.720;2023-04-03T16:47:53;9.00;;;6.30;;
3006;SDS011;1513;47.650;10.720;2023-04-03T16:50:20;8.10;;;6.13;;
3006;SDS011;1513;47.650;10.720;2023-04-03T16:52:46;36.97;;;14.30;;
3006;SDS011;1513;47.650;10.720;2023-04-03T16:55:12;16.03;;;9.20;;